Time;durP1;ratioP1;P1;durP2;ratioP2;P2;SDS_P1;SDS_P2;PMS_P1;PMS_P2;Temp;Humidity;BMP_temperature;BMP_pressure;BME280_temperature;BME280_humidity;BME280_pressure;Samples;Min_cycle;Max_cycle;Signal;HPM_P1;HPM_P2
2021/11/15 00:04:20;;;;;;;;;;;;;;;2.83;100.00;95334.75;10457208;28;20043;-76
2021/11/15 00:09:21;;;;;;;;;;;;;;;2.80;100.00;95337.81;10485304;28;19916;-75
2021/11/15 00:14:21;;;;;;;;;;;;;;;2.56;100.00;95341.97;10467401;28;20279;-76
2021/11/15 00:19:22;;;;;;;;;;;;;;;2.57;100.00;95330.34;10485338;28;20516;-75
2021/11/15 00:24:22;;;;;;;;;;;;;;;2.55;100.00;95338.50;10461819;28;20370;-76
2021/11/15 00:29:22;;;;;;;;;;;;;;;2.61;100.00;95338.69;10409407;28;19978;-75
2021/11/15 00:34:23;;;;;;;;;;;;;;;2.53;100.00;95348.50;10424556;28;19908;-76
2021/11/15 00:39:23;;;;;;;;;;;;;;;2.56;100.00;95350.72;10441762;28;19927;-76
2021/11/15 00:44:24;;;;;;;;;;;;;;;2.64;100.00;95346.25;10441585;28;20062;-77
2021/11/15 00:49:24;;;;;;;;;;;;;;;2.69;100.00;95338.44;10443081;28;19966;-75
2021/11/15 00:54:25;;;;;;;;;;;;;;;2.74;100.00;95328.84;10441413;28;20435;-76
2021/11/15 00:59:27;;;;;;;;;;;;;;;2.64;100.00;95341.75;10467216;28;19916;-76
2021/11/15 01:04:28;;;;;;;;;;;;;;;2.63;100.00;95340.09;10449163;28;19913;-76
2021/11/15 01:09:28;;;;;;;;;;;;;;;2.52;100.00;95338.09;10464421;28;19908;-76
2021/11/15 01:14:28;;;;;;;;;;;;;;;2.39;100.00;95337.09;10465684;28;20196;-76
2021/11/15 01:19:29;;;;;;;;;;;;;;;2.22;100.00;95339.38;10445600;28;20294;-79
2021/11/15 01:24:29;;;;;;;;;;;;;;;2.23;100.00;95345.47;10440725;28;19932;-74
2021/11/15 01:29:30;;;;;;;;;;;;;;;2.26;100.00;95329.16;10424288;28;19910;-80
2021/11/15 01:34:30;;;;;;;;;;;;;;;2.22;100.00;95336.72;10441104;28;19927;-77
2021/11/15 01:39:31;;;;;;;;;;;;;;;2.26;100.00;95337.13;10465281;28;20003;-76
2021/11/15 01:44:31;;;;;;;;;;;;;;;2.18;100.00;95337.34;10465264;28;19920;-76
2021/11/15 01:49:31;;;;;;;;;;;;;;;2.24;100.00;95328.53;10472605;28;19969;-80
2021/11/15 01:54:32;;;;;;;;;;;;;;;2.34;100.00;95331.59;10472873;28;19908;-75
2021/11/15 01:59:32;;;;;;;;;;;;;;;2.43;100.00;95337.50;10472361;28;19915;-79
2021/11/15 02:04:32;;;;;;;;;;;;;;;2.43;100.00;95340.16;10472526;28;19912;-79
2021/11/15 02:09:33;;;;;;;;;;;;;;;2.39;100.00;95333.63;10472683;28;20454;-77
2021/11/15 02:14:33;;;;;;;;;;;;;;;2.46;100.00;95323.81;10455855;28;19970;-78
2021/11/15 02:19:34;;;;;;;;;;;;;;;2.50;100.00;95325.03;10464067;28;19919;-79
2021/11/15 02:24:34;;;;;;;;;;;;;;;2.52;100.00;95320.31;10465813;28;19913;-75
2021/11/15 02:29:37;;;;;;;;;;;;;;;2.54;100.00;95314.81;10460186;28;20005;-76
2021/11/15 02:34:37;;;;;;;;;;;;;;;2.56;100.00;95318.88;10443032;28;19909;-76
2021/11/15 02:39:37;;;;;;;;;;;;;;;2.60;100.00;95313.19;10489302;28;19908;-81
2021/11/15 02:44:39;;;;;;;;;;;;;;;2.66;100.00;95317.66;10470941;28;19924;-76
2021/11/15 02:49:39;;;;;;;;;;;;;;;2.72;100.00;95324.75;10489120;28;20078;-75
2021/11/15 02:54:39;;;;;;;;;;;;;;;2.85;100.00;95323.94;10455765;28;19986;-84
2021/11/15 02:59:39;;;;;;;;;;;;;;;2.79;100.00;95332.72;10447497;28;19912;-75
2021/11/15 03:04:42;;;;;;;;;;;;;;;2.77;100.00;95332.13;10445565;28;19920;-77
2021/11/15 03:09:43;;;;;;;;;;;;;;;2.78;100.00;95339.03;10429088;28;19920;-81
2021/11/15 03:14:43;;;;;;;;;;;;;;;2.61;100.00;95336.03;10461217;28;19912;-75
2021/11/15 03:19:43;;;;;;;;;;;;;;;2.55;100.00;95342.97;10487191;28;19959;-78
2021/11/15 03:24:45;;;;;;;;;;;;;;;2.44;100.00;95344.41;10469805;28;19920;-79
2021/11/15 03:29:45;;;;;;;;;;;;;;;2.50;100.00;95338.31;10468339;28;19955;-76
2021/11/15 03:34:46;;;;;;;;;;;;;;;2.46;100.00;95345.03;10469147;28;20010;-79
2021/11/15 03:39:46;;;;;;;;;;;;;;;2.58;100.00;95339.91;10463142;28;19916;-76
2021/11/15 03:44:46;;;;;;;;;;;;;;;2.54;100.00;95336.88;10442917;28;20019;-76
2021/11/15 03:49:47;;;;;;;;;;;;;;;2.61;100.00;95350.13;10449750;28;19915;-75
2021/11/15 03:54:47;;;;;;;;;;;;;;;2.64;100.00;95339.09;10443524;28;19908;-79
2021/11/15 03:59:47;;;;;;;;;;;;;;;2.76;100.00;95344.56;10442990;28;20373;-75
2021/11/15 04:04:51;;;;;;;;;;;;;;;2.86;100.00;95336.97;10442590;28;20346;-77
2021/11/15 04:09:51;;;;;;;;;;;;;;;2.87;100.00;95335.94;10442683;28;19939;-74
2021/11/15 04:14:52;;;;;;;;;;;;;;;2.90;100.00;95329.41;10442520;28;19908;-78
2021/11/15 04:19:53;;;;;;;;;;;;;;;2.90;100.00;95330.22;10479665;28;19908;-74
2021/11/15 04:24:54;;;;;;;;;;;;;;;2.82;100.00;95335.78;10467936;28;19986;-80
2021/11/15 04:29:54;;;;;;;;;;;;;;;2.93;100.00;95336.13;10467000;28;20007;-78
2021/11/15 04:34:54;;;;;;;;;;;;;;;2.93;100.00;95330.81;10467211;28;20049;-73
2021/11/15 04:39:57;;;;;;;;;;;;;;;2.98;100.00;95345.09;10436486;28;19908;-79
2021/11/15 04:44:57;;;;;;;;;;;;;;;2.89;100.00;95341.88;10441330;28;19921;-78
2021/11/15 04:49:57;;;;;;;;;;;;;;;2.89;100.00;95347.19;10441748;28;19908;-79
2021/11/15 04:54:58;;;;;;;;;;;;;;;2.91;100.00;95355.72;10441461;28;19913;-82
2021/11/15 05:00:00;;;;;;;;;;;;;;;2.94;100.00;95348.38;10441441;28;19913;-80
2021/11/15 05:05:00;;;;;;;;;;;;;;;2.94;100.00;95362.47;10441484;28;19924;-79
2021/11/15 05:10:01;;;;;;;;;;;;;;;2.95;100.00;95363.31;10441892;28;20302;-74
2021/11/15 05:15:03;;;;;;;;;;;;;;;2.97;100.00;95372.66;10440919;28;19912;-80
2021/11/15 05:20:06;;;;;;;;;;;;;;;3.07;100.00;95377.56;10466967;28;19974;-79
2021/11/15 05:25:07;;;;;;;;;;;;;;;3.12;100.00;95380.38;10448813;28;20385;-81
2021/11/15 05:30:09;;;;;;;;;;;;;;;3.17;100.00;95382.44;10450694;28;19909;-77
2021/11/15 05:35:10;;;;;;;;;;;;;;;3.22;100.00;95385.25;10431381;28;20370;-80
2021/11/15 05:40:10;;;;;;;;;;;;;;;3.05;100.00;95390.22;10432547;28;19921;-80
2021/11/15 05:45:11;;;;;;;;;;;;;;;3.03;100.00;95400.25;10448842;28;19928;-78
2021/11/15 05:50:12;;;;;;;;;;;;;;;3.03;100.00;95403.72;10447326;28;19966;-75
2021/11/15 05:55:15;;;;;;;;;;;;;;;3.05;100.00;95411.47;10447533;28;19916;-77
2021/11/15 06:00:17;;;;;;;;;;;;;;;3.02;100.00;95423.31;10442234;28;19963;-76
2021/11/15 06:05:18;;;;;;;;;;;;;;;3.15;100.00;95419.78;10489667;28;19962;-77
2021/11/15 06:10:19;;;;;;;;;;;;;;;3.28;100.00;95426.09;10468666;28;20001;-80
2021/11/15 06:15:21;;;;;;;;;;;;;;;3.38;100.00;95421.97;10468008;28;19959;-76
2021/11/15 06:20:22;;;;;;;;;;;;;;;3.39;100.00;95417.47;10467948;28;20003;-77
2021/11/15 06:25:23;;;;;;;;;;;;;;;3.40;100.00;95424.41;10464068;28;20259;-81
2021/11/15 06:30:23;;;;;;;;;;;;;;;3.51;100.00;95441.53;10446759;28;19912;-76
2021/11/15 06:35:27;;;;;;;;;;;;;;;3.61;100.00;95438.44;10445633;28;19912;-81
2021/11/15 06:40:27;;;;;;;;;;;;;;;3.80;100.00;95445.50;10444910;28;19908;-74
2021/11/15 06:45:30;;;;;;;;;;;;;;;4.00;100.00;95448.03;10443926;28;20313;-79
2021/11/15 06:50:30;;;;;;;;;;;;;;;4.37;100.00;95442.06;10445545;28;19909;-79
2021/11/15 06:55:31;;;;;;;;;;;;;;;4.66;100.00;95431.78;10444739;28;19909;-79
2021/11/15 07:00:32;;;;;;;;;;;;;;;4.92;100.00;95436.84;10445076;28;19995;-79
2021/11/15 07:05:32;;;;;;;;;;;;;;;5.24;100.00;95434.06;10444839;28;19913;-79
2021/11/15 07:10:34;;;;;;;;;;;;;;;5.45;100.00;95435.47;10444721;28;19908;-78
2021/11/15 07:15:34;;;;;;;;;;;;;;;5.69;100.00;95440.94;10444787;28;19960;-79
2021/11/15 07:20:35;;;;;;;;;;;;;;;6.22;100.00;95433.28;10444792;28;20003;-75
2021/11/15 07:25:35;;;;;;;;;;;;;;;6.81;100.00;95442.19;10426976;28;19962;-79
2021/11/15 07:30:36;;;;;;;;;;;;;;;7.26;100.00;95429.28;10427306;28;19961;-76
2021/11/15 07:35:36;;;;;;;;;;;;;;;7.49;100.00;95431.09;10443206;28;20401;-75
2021/11/15 07:40:36;;;;;;;;;;;;;;;8.03;100.00;95434.28;10445427;28;19913;-79
2021/11/15 07:45:37;;;;;;;;;;;;;;;8.53;100.00;95430.09;10442208;28;19925;-75
2021/11/15 07:50:37;;;;;;;;;;;;;;;8.57;100.00;95429.59;10427013;28;19908;-78
2021/11/15 07:55:40;;;;;;;;;;;;;;;8.87;100.00;95429.28;10443193;28;20405;-76
2021/11/15 08:00:40;;;;;;;;;;;;;;;9.60;100.00;95428.38;10444564;28;19959;-80
2021/11/15 08:05:40;;;;;;;;;;;;;;;10.46;100.00;95437.69;10442297;28;19997;-79
2021/11/15 08:10:41;;;;;;;;;;;;;;;10.60;100.00;95422.75;10444038;28;19946;-76
2021/11/15 08:15:41;;;;;;;;;;;;;;;9.83;100.00;95430.03;10441906;28;19904;-75
2021/11/15 08:20:41;;;;;;;;;;;;;;;9.49;100.00;95427.44;10441902;28;19944;-74
2021/11/15 08:25:57;;;;;;;;;;;;;;;9.07;100.00;95426.09;10443835;28;19913;-76
2021/11/15 08:30:58;;;;;;;;;;;;;;;9.64;100.00;95422.28;10442315;28;19959;-76
2021/11/15 08:35:59;;;;;;;;;;;;;;;9.80;100.00;95436.69;10425212;28;20271;-75
2021/11/15 08:41:01;;;;;;;;;;;;;;;9.53;100.00;95432.09;10424986;28;19909;-78
2021/11/15 08:46:01;;;;;;;;;;;;;;;9.47;100.00;95427.69;10440917;28;20498;-75
2021/11/15 08:51:05;;;;;;;;;;;;;;;9.23;100.00;95425.25;10441627;28;19909;-75
2021/11/15 08:56:06;;;;;;;;;;;;;;;9.19;100.00;95429.47;10440594;28;19966;-80
2021/11/15 09:01:07;;;;;;;;;;;;;;;9.48;100.00;95423.97;10441133;28;19913;-77
2021/11/15 09:06:08;;;;;;;;;;;;;;;9.50;100.00;95429.06;10424627;28;19916;-76
2021/11/15 09:11:10;;;;;;;;;;;;;;;9.44;100.00;95422.84;10440708;28;19958;-75
2021/11/15 09:16:11;;;;;;;;;;;;;;;9.69;100.00;95422.34;10424273;28;19971;-74
2021/11/15 09:21:12;;;;;;;;;;;;;;;9.71;100.00;95420.22;10440688;28;19991;-75
2021/11/15 09:26:15;;;;;;;;;;;;;;;9.39;100.00;95420.91;10440934;28;19917;-76
2021/11/15 09:31:15;;;;;;;;;;;;;;;9.24;100.00;95420.69;10424246;28;19942;-79
2021/11/15 09:36:16;;;;;;;;;;;;;;;9.42;100.00;95422.28;10439479;28;20341;-76
2021/11/15 09:41:16;;;;;;;;;;;;;;;9.67;100.00;95415.59;10440461;28;19915;-76
2021/11/15 09:46:18;;;;;;;;;;;;;;;9.72;100.00;95429.88;10424020;28;19931;-78
2021/11/15 09:51:19;;;;;;;;;;;;;;;9.64;100.00;95432.19;10440708;28;19909;-76
2021/11/15 09:56:20;;;;;;;;;;;;;;;9.60;100.00;95429.22;10442822;28;19915;-76
2021/11/15 10:01:20;;;;;;;;;;;;;;;9.62;100.00;95431.66;10464616;28;19973;-76
2021/11/15 10:06:21;;;;;;;;;;;;;;;9.71;100.00;95417.53;10464568;28;19946;-75
2021/11/15 10:11:24;;;;;;;;;;;;;;;9.88;100.00;95425.50;10456191;28;19913;-75
2021/11/15 10:16:25;;;;;;;;;;;;;;;10.09;100.00;95437.28;10448980;28;20042;-75
2021/11/15 10:21:30;;;;;;;;;;;;;;;9.99;100.00;95430.97;10430053;28;20003;-76
2021/11/15 10:26:37;;;;;;;;;;;;;;;10.05;100.00;95433.47;10429688;28;19916;-78
2021/11/15 10:31:42;;;;;;;;;;;;;;;9.79;100.00;95434.25;10454736;28;20329;-77
2021/11/15 10:36:54;;;;;;;;;;;;;;;9.91;100.00;95422.31;10453794;28;20405;-74
2021/11/15 10:42:00;;;;;;;;;;;;;;;10.01;100.00;95426.19;10470710;28;19923;-77
2021/11/15 10:47:00;;;;;;;;;;;;;;;10.25;99.29;95432.88;10469934;28;19959;-76
2021/11/15 10:52:06;;;;;;;;;;;;;;;10.30;98.34;95416.00;10470889;28;19991;-75
2021/11/15 10:57:17;;;;;;;;;;;;;;;10.93;91.99;95426.22;10471115;28;19912;-77
2021/11/15 11:02:25;;;;;;;;;;;;;;;11.22;87.65;95428.56;10469509;28;19908;-76
2021/11/15 11:07:25;;;;;;;;;;;;;;;10.95;89.35;95407.94;10487890;28;19917;-81
2021/11/15 11:12:32;;;;;;;;;;;;;;;11.96;80.80;95410.63;10469006;28;19915;-76
2021/11/15 11:17:33;;;;;;;;;;;;;;;12.42;75.45;95416.13;10468645;28;19931;-79
2021/11/15 11:27:45;;;;;;;;;;;;;;;12.39;71.85;95413.13;10484541;28;19916;-77
2021/11/15 11:32:48;;;;;;;;;;;;;;;12.42;72.85;95418.00;10468351;28;19912;-78
2021/11/15 11:37:48;;;;;;;;;;;;;;;11.71;81.07;95425.59;10468740;28;19930;-78
2021/11/15 11:42:49;;;;;;;;;;;;;;;11.78;82.23;95425.34;10444725;28;19916;-78
2021/11/15 11:47:49;;;;;;;;;;;;;;;11.50;85.15;95426.56;10437762;28;19927;-76
2021/11/15 11:53:05;;;;;;;;;;;;;;;11.67;83.22;95429.88;10466000;28;19920;-81
2021/11/15 11:58:24;;;;;;;;;;;;;;;11.59;83.48;95417.72;10486099;28;19912;-77
2021/11/15 12:03:25;;;;;;;;;;;;;;;11.32;88.02;95434.03;10453127;28;19913;-77
2021/11/15 12:08:44;;;;;;;;;;;;;;;10.96;93.60;95436.47;10442145;28;20635;-79
2021/11/15 12:13:47;;;;;;;;;;;;;;;10.95;97.71;95440.22;10469444;28;20333;-75
2021/11/15 12:18:58;;;;;;;;;;;;;;;10.53;100.00;95439.06;10481504;28;19912;-75
2021/11/15 12:24:06;;;;;;;;;;;;;;;10.36;100.00;95451.81;10473465;28;20440;-76
2021/11/15 12:29:18;;;;;;;;;;;;;;;10.03;100.00;95451.75;10456308;28;19913;-74
2021/11/15 12:34:20;;;;;;;;;;;;;;;9.74;100.00;95451.13;10479582;28;19912;-75
2021/11/15 12:39:23;;;;;;;;;;;;;;;9.81;100.00;95445.53;10474742;28;19962;-75
2021/11/15 12:44:25;;;;;;;;;;;;;;;9.86;100.00;95440.25;10464869;28;20330;-76
2021/11/15 12:49:42;;;;;;;;;;;;;;;9.69;100.00;95446.50;10482610;28;19955;-77
2021/11/15 12:54:43;;;;;;;;;;;;;;;9.63;100.00;95455.56;10469767;28;19924;-77
2021/11/15 12:59:54;;;;;;;;;;;;;;;9.49;100.00;95460.47;10482834;28;19912;-77
2021/11/15 13:04:55;;;;;;;;;;;;;;;9.40;100.00;95465.47;10464434;28;19923;-80
2021/11/15 13:09:59;;;;;;;;;;;;;;;9.53;100.00;95453.56;10476668;28;20007;-77
2021/11/15 13:15:00;;;;;;;;;;;;;;;9.69;100.00;95462.59;10466350;28;19950;-79
2021/11/15 13:20:06;;;;;;;;;;;;;;;9.77;100.00;95463.22;10456968;28;20477;-76
2021/11/15 13:25:08;;;;;;;;;;;;;;;9.75;100.00;95472.34;10438376;28;19946;-74
2021/11/15 13:30:16;;;;;;;;;;;;;;;9.79;100.00;95485.28;10450802;28;20414;-79
2021/11/15 13:35:17;;;;;;;;;;;;;;;9.36;100.00;95472.38;10481606;28;20483;-76
2021/11/15 13:40:18;;;;;;;;;;;;;;;9.30;100.00;95481.41;10476158;28;19923;-79
2021/11/15 13:45:18;;;;;;;;;;;;;;;9.16;100.00;95480.91;10492740;28;19931;-76
2021/11/15 13:50:19;;;;;;;;;;;;;;;9.08;100.00;95478.66;10472049;28;20049;-75
2021/11/15 13:55:19;;;;;;;;;;;;;;;9.21;100.00;95480.22;10472717;28;19908;-74
2021/11/15 14:00:20;;;;;;;;;;;;;;;9.15;100.00;95498.06;10462022;28;19960;-75
2021/11/15 14:05:21;;;;;;;;;;;;;;;9.15;100.00;95489.22;10489244;28;19920;-79
2021/11/15 14:10:21;;;;;;;;;;;;;;;9.06;100.00;95497.66;10487077;28;20378;-75
2021/11/15 14:15:23;;;;;;;;;;;;;;;9.11;100.00;95494.28;10446205;28;19916;-76
2021/11/15 14:20:26;;;;;;;;;;;;;;;8.96;100.00;95508.25;10430573;28;19915;-77
2021/11/15 14:25:26;;;;;;;;;;;;;;;8.98;100.00;95498.06;10448369;28;19921;-76
2021/11/15 14:30:26;;;;;;;;;;;;;;;9.12;100.00;95492.41;10446519;28;19921;-76
2021/11/15 14:35:27;;;;;;;;;;;;;;;8.89;100.00;95497.69;10446054;28;20007;-76
2021/11/15 14:40:27;;;;;;;;;;;;;;;8.80;100.00;95493.75;10445525;28;20326;-74
2021/11/15 14:45:28;;;;;;;;;;;;;;;8.85;100.00;95495.72;10429972;28;19927;-73
2021/11/15 14:50:28;;;;;;;;;;;;;;;8.84;100.00;95510.19;10463055;28;19912;-76
2021/11/15 14:55:29;;;;;;;;;;;;;;;8.85;100.00;95507.25;10428673;28;19983;-76
2021/11/15 15:00:30;;;;;;;;;;;;;;;8.97;100.00;95512.56;10428734;28;19908;-75
2021/11/15 15:05:31;;;;;;;;;;;;;;;9.07;100.00;95509.22;10437782;28;19912;-77
2021/11/15 15:10:32;;;;;;;;;;;;;;;8.91;100.00;95518.88;10449534;28;19909;-73
2021/11/15 15:15:33;;;;;;;;;;;;;;;8.79;100.00;95535.03;10428228;28;19916;-78
2021/11/15 15:20:36;;;;;;;;;;;;;;;8.62;100.00;95521.59;10431209;28;20419;-74
2021/11/15 15:25:38;;;;;;;;;;;;;;;8.65;100.00;95534.53;10478227;28;19920;-74
2021/11/15 15:30:39;;;;;;;;;;;;;;;8.64;100.00;95534.78;10445697;28;19916;-75
2021/11/15 15:35:40;;;;;;;;;;;;;;;8.69;100.00;95529.50;10446190;28;20003;-75
2021/11/15 15:40:44;;;;;;;;;;;;;;;8.75;100.00;95538.44;10445003;28;19919;-73
2021/11/15 15:45:46;;;;;;;;;;;;;;;8.65;100.00;95545.25;10466026;28;19920;-73
2021/11/15 15:50:51;;;;;;;;;;;;;;;8.50;100.00;95555.69;10470149;28;19912;-74
2021/11/15 15:55:52;;;;;;;;;;;;;;;8.53;100.00;95555.22;10493115;28;19915;-74
2021/11/15 16:00:53;;;;;;;;;;;;;;;8.65;100.00;95561.34;10485760;28;20449;-77
2021/11/15 16:06:08;;;;;;;;;;;;;;;8.53;100.00;95564.03;10438491;28;19912;-75
2021/11/15 16:16:32;;;;;;;;;;;;;;;8.44;100.00;95578.03;10442601;28;19916;-73
2021/11/15 16:21:34;;;;;;;;;;;;;;;8.45;100.00;95588.53;10431211;28;20858;-73
2021/11/15 16:26:36;;;;;;;;;;;;;;;8.30;100.00;95606.94;10504307;28;19924;-73
2021/11/15 16:31:36;;;;;;;;;;;;;;;8.34;100.00;95605.44;10507294;28;20320;-72
2021/11/15 16:36:37;;;;;;;;;;;;;;;8.16;100.00;95606.41;10488323;28;19908;-73
2021/11/15 16:41:38;;;;;;;;;;;;;;;7.97;100.00;95613.78;10465012;28;19970;-74
2021/11/15 16:46:38;;;;;;;;;;;;;;;7.60;100.00;95614.03;10483497;28;19928;-75
2021/11/15 16:51:38;;;;;;;;;;;;;;;7.26;100.00;95613.75;10516286;28;20010;-74
2021/11/15 16:56:39;;;;;;;;;;;;;;;7.11;100.00;95612.31;10470794;28;19999;-77
2021/11/15 17:01:39;;;;;;;;;;;;;;;7.01;100.00;95617.44;10463366;28;19950;-75
2021/11/15 17:06:40;;;;;;;;;;;;;;;7.07;100.00;95627.19;10465142;28;20427;-75
2021/11/15 17:11:40;;;;;;;;;;;;;;;6.96;100.00;95623.47;10465362;28;20006;-74
2021/11/15 17:16:40;;;;;;;;;;;;;;;6.79;100.00;95627.81;10466579;28;19957;-75
2021/11/15 17:21:41;;;;;;;;;;;;;;;6.76;100.00;95622.94;10491692;28;19999;-73
2021/11/15 17:26:41;;;;;;;;;;;;;;;6.77;100.00;95624.56;10473035;28;20350;-77
2021/11/15 17:31:45;;;;;;;;;;;;;;;6.79;100.00;95625.94;10467165;28;20005;-76
2021/11/15 17:36:45;;;;;;;;;;;;;;;6.82;100.00;95633.53;10493398;28;20439;-75
2021/11/15 17:41:46;;;;;;;;;;;;;;;6.89;100.00;95624.59;10530055;28;19958;-75
2021/11/15 17:46:59;;;;;;;;;;;;;;;6.94;100.00;95627.41;10485648;28;20520;-75
2021/11/15 17:52:08;;;;;;;;;;;;;;;6.82;100.00;95627.34;10496235;28;19965;-75
2021/11/15 17:57:13;;;;;;;;;;;;;;;6.90;100.00;95635.06;10511841;28;19912;-71
2021/11/15 18:02:14;;;;;;;;;;;;;;;6.90;100.00;95635.06;10528585;28;19912;-73
2021/11/15 18:07:14;;;;;;;;;;;;;;;6.81;100.00;95639.91;10512376;28;19920;-74
2021/11/15 18:12:15;;;;;;;;;;;;;;;6.64;100.00;95642.41;10511974;28;19974;-73
2021/11/15 18:17:22;;;;;;;;;;;;;;;6.53;100.00;95640.50;10468725;28;19916;-77
2021/11/15 18:22:23;;;;;;;;;;;;;;;6.46;100.00;95640.56;10487628;28;20305;-72
2021/11/15 18:27:23;;;;;;;;;;;;;;;6.47;100.00;95636.88;10470110;28;19926;-78
2021/11/15 18:32:24;;;;;;;;;;;;;;;6.44;100.00;95641.84;10465776;28;19912;-73
2021/11/15 18:37:24;;;;;;;;;;;;;;;6.44;100.00;95647.16;10479973;28;19992;-75
2021/11/15 18:42:26;;;;;;;;;;;;;;;6.44;100.00;95645.31;10469944;28;20392;-77
2021/11/15 18:47:26;;;;;;;;;;;;;;;6.39;100.00;95658.53;10502044;28;19928;-77
2021/11/15 18:52:26;;;;;;;;;;;;;;;6.33;100.00;95654.91;10468958;28;20344;-74
2021/11/15 18:57:27;;;;;;;;;;;;;;;6.33;100.00;95652.22;10470177;28;19912;-77
2021/11/15 19:02:27;;;;;;;;;;;;;;;6.39;100.00;95660.38;10461686;28;20306;-79
2021/11/15 19:07:36;;;;;;;;;;;;;;;6.30;100.00;95660.66;10426940;28;20375;-76
2021/11/15 19:12:37;;;;;;;;;;;;;;;6.35;100.00;95675.19;10445461;28;19930;-75
2021/11/15 19:17:38;;;;;;;;;;;;;;;6.21;100.00;95677.19;10458594;28;19934;-75
2021/11/15 19:22:39;;;;;;;;;;;;;;;6.26;100.00;95682.69;10486042;28;19915;-76
2021/11/15 19:27:39;;;;;;;;;;;;;;;6.30;100.00;95684.69;10486432;28;19916;-73
2021/11/15 19:32:40;;;;;;;;;;;;;;;6.31;100.00;95693.53;10509319;28;19908;-76
2021/11/15 19:37:41;;;;;;;;;;;;;;;6.31;100.00;95696.22;10498171;28;19908;-76
2021/11/15 19:42:48;;;;;;;;;;;;;;;6.39;100.00;95695.06;10458256;28;20363;-73
2021/11/15 19:47:49;;;;;;;;;;;;;;;6.35;100.00;95699.22;10458105;28;19917;-74
2021/11/15 19:52:49;;;;;;;;;;;;;;;6.34;100.00;95698.44;10467382;28;19951;-77
2021/11/15 19:57:49;;;;;;;;;;;;;;;6.30;100.00;95697.22;10485802;28;20491;-73
2021/11/15 20:03:06;;;;;;;;;;;;;;;6.27;100.00;95709.16;10543027;27;19920;-74
2021/11/15 20:08:06;;;;;;;;;;;;;;;6.29;100.00;95709.78;10478874;28;19917;-74
2021/11/15 20:13:06;;;;;;;;;;;;;;;6.30;100.00;95716.72;10493565;28;19920;-74
2021/11/15 20:18:08;;;;;;;;;;;;;;;6.33;100.00;95716.31;10475713;28;20242;-74
2021/11/15 20:23:10;;;;;;;;;;;;;;;6.30;100.00;95724.75;10492829;28;20369;-74
2021/11/15 20:28:11;;;;;;;;;;;;;;;6.37;100.00;95726.53;10476896;28;19917;-74
2021/11/15 20:33:12;;;;;;;;;;;;;;;6.31;100.00;95721.03;10475262;28;19927;-74
2021/11/15 20:38:13;;;;;;;;;;;;;;;6.29;100.00;95727.63;10474860;28;20424;-74
2021/11/15 20:43:14;;;;;;;;;;;;;;;6.30;100.00;95727.41;10491660;28;20011;-74
2021/11/15 20:48:16;;;;;;;;;;;;;;;6.35;100.00;95720.59;10490361;28;19916;-74
2021/11/15 20:53:17;;;;;;;;;;;;;;;6.29;100.00;95728.47;10473831;28;19963;-74
2021/11/15 20:58:18;;;;;;;;;;;;;;;6.32;100.00;95717.34;10458915;28;19929;-74
2021/11/15 21:03:18;;;;;;;;;;;;;;;6.29;100.00;95723.13;10459805;28;19921;-74
2021/11/15 21:08:19;;;;;;;;;;;;;;;6.20;100.00;95718.31;10454561;28;19974;-74
2021/11/15 21:13:19;;;;;;;;;;;;;;;6.21;100.00;95723.41;10452049;28;19924;-73
2021/11/15 21:18:19;;;;;;;;;;;;;;;6.13;100.00;95713.81;10444697;28;19921;-76
2021/11/15 21:23:24;;;;;;;;;;;;;;;6.21;100.00;95719.91;10446712;28;19917;-74
2021/11/15 21:28:24;;;;;;;;;;;;;;;6.22;100.00;95726.88;10446406;28;20306;-77
2021/11/15 21:33:24;;;;;;;;;;;;;;;6.14;100.00;95720.81;10447095;28;19928;-74
2021/11/15 21:38:25;;;;;;;;;;;;;;;6.27;100.00;95724.38;10444966;28;19912;-74
2021/11/15 21:43:25;;;;;;;;;;;;;;;6.24;100.00;95724.84;10445030;28;19928;-74
2021/11/15 21:48:25;;;;;;;;;;;;;;;6.23;100.00;95733.88;10462858;28;20442;-73
2021/11/15 21:53:26;;;;;;;;;;;;;;;6.12;100.00;95720.19;10445961;28;20478;-76
2021/11/15 21:58:26;;;;;;;;;;;;;;;6.31;100.00;95730.91;10444337;28;20397;-73
2021/11/15 22:03:27;;;;;;;;;;;;;;;6.41;100.00;95733.06;10444092;28;20436;-73
2021/11/15 22:08:30;;;;;;;;;;;;;;;6.27;100.00;95737.72;10443548;28;19912;-73
2021/11/15 22:13:30;;;;;;;;;;;;;;;6.03;100.00;95740.22;10443918;28;19917;-77
2021/11/15 22:18:31;;;;;;;;;;;;;;;6.03;100.00;95728.69;10445066;28;19920;-73
2021/11/15 22:23:47;;;;;;;;;;;;;;;6.09;100.00;95730.50;10442244;28;19965;-74
2021/11/15 22:28:48;;;;;;;;;;;;;;;6.07;100.00;95732.56;10456614;28;19966;-73
2021/11/15 22:33:48;;;;;;;;;;;;;;;6.25;100.00;95732.63;10459982;28;20031;-74
2021/11/15 22:38:49;;;;;;;;;;;;;;;6.38;100.00;95728.16;10444783;28;19917;-74
2021/11/15 22:43:50;;;;;;;;;;;;;;;6.51;100.00;95728.00;10458446;28;19971;-77
2021/11/15 22:48:50;;;;;;;;;;;;;;;6.61;100.00;95727.50;10458914;28;19912;-74
2021/11/15 22:53:51;;;;;;;;;;;;;;;6.54;100.00;95727.56;10441920;28;20000;-76
2021/11/15 22:58:51;;;;;;;;;;;;;;;6.35;100.00;95732.09;10441778;28;20019;-73
2021/11/15 23:03:52;;;;;;;;;;;;;;;6.23;100.00;95734.66;10458444;28;19920;-73
2021/11/15 23:08:52;;;;;;;;;;;;;;;6.14;100.00;95736.00;10441477;28;19935;-72
2021/11/15 23:13:53;;;;;;;;;;;;;;;6.30;100.00;95739.94;10458565;28;20374;-73
2021/11/15 23:18:53;;;;;;;;;;;;;;;6.20;100.00;95727.13;10458080;28;19921;-73
2021/11/15 23:23:53;;;;;;;;;;;;;;;6.09;100.00;95727.84;10457960;28;19912;-73
2021/11/15 23:28:54;;;;;;;;;;;;;;;5.87;100.00;95727.38;10441237;28;19917;-73
2021/11/15 23:33:54;;;;;;;;;;;;;;;5.85;100.00;95732.94;10440910;28;19920;-76
2021/11/15 23:38:54;;;;;;;;;;;;;;;5.88;100.00;95734.38;10442845;28;19921;-76
2021/11/15 23:43:55;;;;;;;;;;;;;;;5.85;100.00;95738.28;10440441;28;19917;-73
2021/11/15 23:48:57;;;;;;;;;;;;;;;5.96;100.00;95734.09;10439094;28;19917;-73
2021/11/15 23:53:59;;;;;;;;;;;;;;;6.02;100.00;95724.44;10458256;28;20404;-73
2021/11/15 23:58:59;;;;;;;;;;;;;;;5.92;100.00;95736.38;10457225;28;20610;-72
